sensor_id;sensor_type;location;lat;lon;timestamp;temperature;humidity
38592;DHT22;24356;48.460;11.450;2022-10-16T00:02:00;12.50;90.40
38592;DHT22;24356;48.460;11.450;2022-10-16T00:04:25;12.50;90.30
38592;DHT22;24356;48.460;11.450;2022-10-16T00:06:51;12.50;90.30
38592;DHT22;24356;48.460;11.450;2022-10-16T00:09:16;12.50;90.30
38592;DHT22;24356;48.460;11.450;2022-10-16T00:11:42;12.40;90.40
38592;DHT22;24356;48.460;11.450;2022-10-16T00:14:11;12.40;90.50
38592;DHT22;24356;48.460;11.450;2022-10-16T00:16:40;12.40;90.40
38592;DHT22;24356;48.460;11.450;2022-10-16T00:19:06;12.30;90.50
38592;DHT22;24356;48.460;11.450;2022-10-16T00:21:32;12.30;90.50
38592;DHT22;24356;48.460;11.450;2022-10-16T00:24:04;12.30;90.60
38592;DHT22;24356;48.460;11.450;2022-10-16T00:26:32;12.30;90.60
38592;DHT22;24356;48.460;11.450;2022-10-16T00:28:58;12.30;90.90
38592;DHT22;24356;48.460;11.450;2022-10-16T00:31:25;12.30;90.70
38592;DHT22;24356;48.460;11.450;2022-10-16T00:33:51;12.30;90.80
38592;DHT22;24356;48.460;11.450;2022-10-16T00:36:20;12.30;90.70
38592;DHT22;24356;48.460;11.450;2022-10-16T00:38:46;12.30;90.70
38592;DHT22;24356;48.460;11.450;2022-10-16T00:41:16;12.30;90.60
38592;DHT22;24356;48.460;11.450;2022-10-16T00:43:48;12.30;90.70
38592;DHT22;24356;48.460;11.450;2022-10-16T00:48:46;12.20;90.90
38592;DHT22;24356;48.460;11.450;2022-10-16T00:51:14;12.20;91.00
38592;DHT22;24356;48.460;11.450;2022-10-16T00:53:39;12.20;91.00
38592;DHT22;24356;48.460;11.450;2022-10-16T00:56:05;12.20;90.80
38592;DHT22;24356;48.460;11.450;2022-10-16T00:58:32;12.20;90.70
38592;DHT22;24356;48.460;11.450;2022-10-16T01:00:59;12.20;91.00
38592;DHT22;24356;48.460;11.450;2022-10-16T01:03:28;12.20;91.00
38592;DHT22;24356;48.460;11.450;2022-10-16T01:08:48;12.10;91.00
38592;DHT22;24356;48.460;11.450;2022-10-16T01:11:27;12.10;91.00
38592;DHT22;24356;48.460;11.450;2022-10-16T01:13:59;12.10;91.00
38592;DHT22;24356;48.460;11.450;2022-10-16T01:16:36;12.10;90.90
38592;DHT22;24356;48.460;11.450;2022-10-16T01:19:20;12.10;91.00
38592;DHT22;24356;48.460;11.450;2022-10-16T01:21:51;12.10;91.10
38592;DHT22;24356;48.460;11.450;2022-10-16T01:27:28;12.10;91.00
38592;DHT22;24356;48.460;11.450;2022-10-16T01:29:56;12.10;91.00
38592;DHT22;24356;48.460;11.450;2022-10-16T01:34:53;12.10;91.20
38592;DHT22;24356;48.460;11.450;2022-10-16T01:38:16;12.10;91.30
38592;DHT22;24356;48.460;11.450;2022-10-16T01:40:45;12.10;91.10
38592;DHT22;24356;48.460;11.450;2022-10-16T01:43:21;12.10;91.30
38592;DHT22;24356;48.460;11.450;2022-10-16T01:45:48;12.10;91.20
38592;DHT22;24356;48.460;11.450;2022-10-16T01:48:17;12.10;91.10
38592;DHT22;24356;48.460;11.450;2022-10-16T01:50:44;12.10;91.20
38592;DHT22;24356;48.460;11.450;2022-10-16T01:53:14;12.10;91.30
38592;DHT22;24356;48.460;11.450;2022-10-16T01:55:44;12.10;91.20
38592;DHT22;24356;48.460;11.450;2022-10-16T01:58:12;12.10;91.20
38592;DHT22;24356;48.460;11.450;2022-10-16T02:00:41;12.10;91.20
38592;DHT22;24356;48.460;11.450;2022-10-16T02:03:07;12.10;91.10
38592;DHT22;24356;48.460;11.450;2022-10-16T02:08:05;12.10;91.20
38592;DHT22;24356;48.460;11.450;2022-10-16T02:10:31;12.00;91.20
38592;DHT22;24356;48.460;11.450;2022-10-16T02:13:09;12.00;91.00
38592;DHT22;24356;48.460;11.450;2022-10-16T02:15:35;12.00;91.10
38592;DHT22;24356;48.460;11.450;2022-10-16T02:18:06;12.00;91.00
38592;DHT22;24356;48.460;11.450;2022-10-16T02:20:38;12.00;91.00
38592;DHT22;24356;48.460;11.450;2022-10-16T02:23:07;11.90;91.00
38592;DHT22;24356;48.460;11.450;2022-10-16T02:25:37;11.90;91.10
38592;DHT22;24356;48.460;11.450;2022-10-16T02:28:17;11.90;91.00
38592;DHT22;24356;48.460;11.450;2022-10-16T02:30:58;11.90;91.10
38592;DHT22;24356;48.460;11.450;2022-10-16T02:33:27;11.80;91.10
38592;DHT22;24356;48.460;11.450;2022-10-16T02:35:55;11.80;91.00
38592;DHT22;24356;48.460;11.450;2022-10-16T02:38:23;11.80;91.00
38592;DHT22;24356;48.460;11.450;2022-10-16T02:40:50;11.70;91.20
38592;DHT22;24356;48.460;11.450;2022-10-16T02:43:16;11.70;91.20
38592;DHT22;24356;48.460;11.450;2022-10-16T02:45:42;11.70;91.40
38592;DHT22;24356;48.460;11.450;2022-10-16T02:48:08;11.70;91.30
38592;DHT22;24356;48.460;11.450;2022-10-16T02:50:34;11.60;91.30
38592;DHT22;24356;48.460;11.450;2022-10-16T02:53:00;11.60;91.30
38592;DHT22;24356;48.460;11.450;2022-10-16T02:55:25;11.60;91.30
38592;DHT22;24356;48.460;11.450;2022-10-16T02:57:53;11.60;91.40
38592;DHT22;24356;48.460;11.450;2022-10-16T03:00:19;11.60;91.30
38592;DHT22;24356;48.460;11.450;2022-10-16T03:02:45;11.60;91.50
38592;DHT22;24356;48.460;11.450;2022-10-16T03:05:11;11.50;91.50
38592;DHT22;24356;48.460;11.450;2022-10-16T03:07:37;11.50;91.40
38592;DHT22;24356;48.460;11.450;2022-10-16T03:10:03;11.50;91.60
38592;DHT22;24356;48.460;11.450;2022-10-16T03:12:29;11.50;91.60
38592;DHT22;24356;48.460;11.450;2022-10-16T03:14:58;11.50;91.60
38592;DHT22;24356;48.460;11.450;2022-10-16T03:17:24;11.50;91.60
38592;DHT22;24356;48.460;11.450;2022-10-16T03:19:50;11.50;91.60
38592;DHT22;24356;48.460;11.450;2022-10-16T03:22:15;11.50;91.70
38592;DHT22;24356;48.460;11.450;2022-10-16T03:24:41;11.50;91.70
38592;DHT22;24356;48.460;11.450;2022-10-16T03:27:07;11.50;91.70
38592;DHT22;24356;48.460;11.450;2022-10-16T03:29:33;11.50;91.70
38592;DHT22;24356;48.460;11.450;2022-10-16T03:32:00;11.50;91.80
38592;DHT22;24356;48.460;11.450;2022-10-16T03:34:26;11.50;91.80
38592;DHT22;24356;48.460;11.450;2022-10-16T03:36:52;11.50;91.70
38592;DHT22;24356;48.460;11.450;2022-10-16T03:39:18;11.50;91.80
38592;DHT22;24356;48.460;11.450;2022-10-16T03:41:43;11.50;91.80
38592;DHT22;24356;48.460;11.450;2022-10-16T03:44:09;11.50;91.70
38592;DHT22;24356;48.460;11.450;2022-10-16T03:46:34;11.50;91.70
38592;DHT22;24356;48.460;11.450;2022-10-16T03:49:00;11.50;91.70
38592;DHT22;24356;48.460;11.450;2022-10-16T03:51:26;11.50;91.60
38592;DHT22;24356;48.460;11.450;2022-10-16T03:53:51;11.60;91.60
38592;DHT22;24356;48.460;11.450;2022-10-16T03:56:17;11.60;91.60
38592;DHT22;24356;48.460;11.450;2022-10-16T03:58:43;11.60;91.60
38592;DHT22;24356;48.460;11.450;2022-10-16T04:01:08;11.60;91.60
38592;DHT22;24356;48.460;11.450;2022-10-16T04:03:34;11.60;91.50
38592;DHT22;24356;48.460;11.450;2022-10-16T04:05:59;11.60;91.60
38592;DHT22;24356;48.460;11.450;2022-10-16T04:08:25;11.60;91.50
38592;DHT22;24356;48.460;11.450;2022-10-16T04:10:51;11.60;91.50
38592;DHT22;24356;48.460;11.450;2022-10-16T04:13:17;11.60;91.50
38592;DHT22;24356;48.460;11.450;2022-10-16T04:15:42;11.60;91.40
38592;DHT22;24356;48.460;11.450;2022-10-16T04:18:09;11.60;91.40
38592;DHT22;24356;48.460;11.450;2022-10-16T04:20:35;11.60;91.40
38592;DHT22;24356;48.460;11.450;2022-10-16T04:23:00;11.60;91.30
38592;DHT22;24356;48.460;11.450;2022-10-16T04:25:26;11.70;91.30
38592;DHT22;24356;48.460;11.450;2022-10-16T04:27:55;11.70;91.40
38592;DHT22;24356;48.460;11.450;2022-10-16T04:30:22;11.70;91.30
38592;DHT22;24356;48.460;11.450;2022-10-16T04:32:52;11.70;91.20
38592;DHT22;24356;48.460;11.450;2022-10-16T04:35:18;11.70;91.00
38592;DHT22;24356;48.460;11.450;2022-10-16T04:37:45;11.70;91.20
38592;DHT22;24356;48.460;11.450;2022-10-16T04:40:11;11.70;91.20
38592;DHT22;24356;48.460;11.450;2022-10-16T04:42:36;11.70;91.00
38592;DHT22;24356;48.460;11.450;2022-10-16T04:45:03;11.70;91.00
38592;DHT22;24356;48.460;11.450;2022-10-16T04:47:29;11.70;91.00
38592;DHT22;24356;48.460;11.450;2022-10-16T04:49:54;11.70;91.00
38592;DHT22;24356;48.460;11.450;2022-10-16T04:52:20;11.70;91.80
38592;DHT22;24356;48.460;11.450;2022-10-16T04:54:47;11.70;91.60
38592;DHT22;24356;48.460;11.450;2022-10-16T04:57:13;11.70;91.30
38592;DHT22;24356;48.460;11.450;2022-10-16T04:59:38;11.70;91.00
38592;DHT22;24356;48.460;11.450;2022-10-16T05:02:04;11.70;91.00
38592;DHT22;24356;48.460;11.450;2022-10-16T05:04:30;11.80;91.00
38592;DHT22;24356;48.460;11.450;2022-10-16T05:06:55;11.70;91.00
38592;DHT22;24356;48.460;11.450;2022-10-16T05:09:21;11.80;91.40
38592;DHT22;24356;48.460;11.450;2022-10-16T05:11:47;11.70;91.00
38592;DHT22;24356;48.460;11.450;2022-10-16T05:14:12;11.80;91.00
38592;DHT22;24356;48.460;11.450;2022-10-16T05:16:38;11.80;91.00
38592;DHT22;24356;48.460;11.450;2022-10-16T05:19:03;11.70;91.00
38592;DHT22;24356;48.460;11.450;2022-10-16T05:21:29;11.80;91.00
38592;DHT22;24356;48.460;11.450;2022-10-16T05:23:55;11.70;91.00
38592;DHT22;24356;48.460;11.450;2022-10-16T05:26:20;11.70;91.00
38592;DHT22;24356;48.460;11.450;2022-10-16T05:28:46;11.70;91.00
38592;DHT22;24356;48.460;11.450;2022-10-16T05:31:12;11.70;91.00
38592;DHT22;24356;48.460;11.450;2022-10-16T05:33:38;11.70;90.80
38592;DHT22;24356;48.460;11.450;2022-10-16T05:36:05;11.70;90.80
38592;DHT22;24356;48.460;11.450;2022-10-16T05:38:36;11.70;90.80
38592;DHT22;24356;48.460;11.450;2022-10-16T05:41:03;11.60;90.80
38592;DHT22;24356;48.460;11.450;2022-10-16T05:43:29;11.60;90.80
38592;DHT22;24356;48.460;11.450;2022-10-16T05:45:59;11.60;91.00
38592;DHT22;24356;48.460;11.450;2022-10-16T05:48:25;11.60;90.80
38592;DHT22;24356;48.460;11.450;2022-10-16T05:51:03;11.60;90.80
38592;DHT22;24356;48.460;11.450;2022-10-16T05:53:32;11.50;90.90
38592;DHT22;24356;48.460;11.450;2022-10-16T05:55:59;11.50;91.00
38592;DHT22;24356;48.460;11.450;2022-10-16T05:58:27;11.50;91.10
38592;DHT22;24356;48.460;11.450;2022-10-16T06:00:55;11.50;91.00
38592;DHT22;24356;48.460;11.450;2022-10-16T06:03:21;11.50;91.00
38592;DHT22;24356;48.460;11.450;2022-10-16T06:05:47;11.40;91.00
38592;DHT22;24356;48.460;11.450;2022-10-16T06:08:13;11.40;91.10
38592;DHT22;24356;48.460;11.450;2022-10-16T06:10:39;11.40;91.00
38592;DHT22;24356;48.460;11.450;2022-10-16T06:13:04;11.40;90.90
38592;DHT22;24356;48.460;11.450;2022-10-16T06:15:30;11.40;91.00
38592;DHT22;24356;48.460;11.450;2022-10-16T06:17:55;11.40;91.00
38592;DHT22;24356;48.460;11.450;2022-10-16T06:20:21;11.40;91.00
38592;DHT22;24356;48.460;11.450;2022-10-16T06:22:46;11.40;91.00
38592;DHT22;24356;48.460;11.450;2022-10-16T06:25:12;11.30;91.00
38592;DHT22;24356;48.460;11.450;2022-10-16T06:27:41;11.30;91.00
38592;DHT22;24356;48.460;11.450;2022-10-16T06:30:07;11.30;91.00
38592;DHT22;24356;48.460;11.450;2022-10-16T06:32:33;11.30;91.00
38592;DHT22;24356;48.460;11.450;2022-10-16T06:34:59;11.40;91.40
38592;DHT22;24356;48.460;11.450;2022-10-16T06:37:24;11.50;91.80
38592;DHT22;24356;48.460;11.450;2022-10-16T06:39:50;11.60;92.10
38592;DHT22;24356;48.460;11.450;2022-10-16T06:42:18;11.80;91.80
38592;DHT22;24356;48.460;11.450;2022-10-16T06:44:43;11.90;91.50
38592;DHT22;24356;48.460;11.450;2022-10-16T06:47:09;12.00;91.30
38592;DHT22;24356;48.460;11.450;2022-10-16T06:49:35;12.10;91.30
38592;DHT22;24356;48.460;11.450;2022-10-16T06:52:01;12.10;90.80
38592;DHT22;24356;48.460;11.450;2022-10-16T06:54:28;12.20;90.60
38592;DHT22;24356;48.460;11.450;2022-10-16T06:56:53;12.20;90.40
38592;DHT22;24356;48.460;11.450;2022-10-16T06:59:20;12.20;90.40
38592;DHT22;24356;48.460;11.450;2022-10-16T07:01:46;12.20;90.10
38592;DHT22;24356;48.460;11.450;2022-10-16T07:04:11;12.20;90.00
38592;DHT22;24356;48.460;11.450;2022-10-16T07:06:37;12.20;90.10
38592;DHT22;24356;48.460;11.450;2022-10-16T07:09:06;12.20;90.10
38592;DHT22;24356;48.460;11.450;2022-10-16T07:11:33;12.30;90.30
38592;DHT22;24356;48.460;11.450;2022-10-16T07:13:59;12.40;90.30
38592;DHT22;24356;48.460;11.450;2022-10-16T07:16:30;12.40;90.00
38592;DHT22;24356;48.460;11.450;2022-10-16T07:19:00;12.50;89.80
38592;DHT22;24356;48.460;11.450;2022-10-16T07:21:29;12.60;89.50
38592;DHT22;24356;48.460;11.450;2022-10-16T07:23:57;12.60;89.50
38592;DHT22;24356;48.460;11.450;2022-10-16T07:26:23;12.70;89.70
38592;DHT22;24356;48.460;11.450;2022-10-16T07:28:51;12.70;89.50
38592;DHT22;24356;48.460;11.450;2022-10-16T07:31:19;12.80;89.60
38592;DHT22;24356;48.460;11.450;2022-10-16T07:33:46;12.90;89.50
38592;DHT22;24356;48.460;11.450;2022-10-16T07:36:14;12.90;89.50
38592;DHT22;24356;48.460;11.450;2022-10-16T07:38:41;13.00;89.60
38592;DHT22;24356;48.460;11.450;2022-10-16T07:41:13;13.10;89.90
38592;DHT22;24356;48.460;11.450;2022-10-16T07:43:40;13.10;89.40
38592;DHT22;24356;48.460;11.450;2022-10-16T07:46:05;13.20;89.80
38592;DHT22;24356;48.460;11.450;2022-10-16T07:48:33;13.30;89.90
38592;DHT22;24356;48.460;11.450;2022-10-16T07:51:04;13.40;89.80
38592;DHT22;24356;48.460;11.450;2022-10-16T07:53:30;13.50;89.80
38592;DHT22;24356;48.460;11.450;2022-10-16T07:55:58;13.60;90.00
38592;DHT22;24356;48.460;11.450;2022-10-16T07:58:24;13.70;89.70
38592;DHT22;24356;48.460;11.450;2022-10-16T08:00:49;13.80;89.90
38592;DHT22;24356;48.460;11.450;2022-10-16T08:03:15;13.90;89.70
38592;DHT22;24356;48.460;11.450;2022-10-16T08:05:40;14.00;90.00
38592;DHT22;24356;48.460;11.450;2022-10-16T08:08:06;14.10;90.00
38592;DHT22;24356;48.460;11.450;2022-10-16T08:10:32;14.30;89.60
38592;DHT22;24356;48.460;11.450;2022-10-16T08:12:57;14.60;89.20
38592;DHT22;24356;48.460;11.450;2022-10-16T08:15:24;15.00;88.60
38592;DHT22;24356;48.460;11.450;2022-10-16T08:18:01;15.30;88.20
38592;DHT22;24356;48.460;11.450;2022-10-16T08:20:27;15.70;87.00
38592;DHT22;24356;48.460;11.450;2022-10-16T08:22:54;16.10;86.10
38592;DHT22;24356;48.460;11.450;2022-10-16T08:25:21;16.50;85.20
38592;DHT22;24356;48.460;11.450;2022-10-16T08:27:49;16.90;84.20
38592;DHT22;24356;48.460;11.450;2022-10-16T08:30:15;17.20;83.20
38592;DHT22;24356;48.460;11.450;2022-10-16T08:32:41;17.50;81.90
38592;DHT22;24356;48.460;11.450;2022-10-16T08:35:08;17.80;81.80
38592;DHT22;24356;48.460;11.450;2022-10-16T08:37:35;18.10;80.70
38592;DHT22;24356;48.460;11.450;2022-10-16T08:40:01;18.40;80.10
38592;DHT22;24356;48.460;11.450;2022-10-16T08:42:57;18.70;79.50
38592;DHT22;24356;48.460;11.450;2022-10-16T08:48:14;19.10;78.00
38592;DHT22;24356;48.460;11.450;2022-10-16T08:50:43;19.10;77.50
38592;DHT22;24356;48.460;11.450;2022-10-16T08:54:12;19.20;78.30
38592;DHT22;24356;48.460;11.450;2022-10-16T08:56:18;19.20;77.70
38592;DHT22;24356;48.460;11.450;2022-10-16T08:58:44;19.40;77.60
38592;DHT22;24356;48.460;11.450;2022-10-16T09:01:18;19.60;77.20
38592;DHT22;24356;48.460;11.450;2022-10-16T09:06:46;19.90;76.60
38592;DHT22;24356;48.460;11.450;2022-10-16T09:12:00;20.30;76.00
38592;DHT22;24356;48.460;11.450;2022-10-16T09:19:44;20.80;74.60
38592;DHT22;24356;48.460;11.450;2022-10-16T09:22:16;20.90;74.20
38592;DHT22;24356;48.460;11.450;2022-10-16T09:24:42;21.10;74.00
38592;DHT22;24356;48.460;11.450;2022-10-16T09:27:14;21.20;73.70
38592;DHT22;24356;48.460;11.450;2022-10-16T09:29:40;21.30;73.60
38592;DHT22;24356;48.460;11.450;2022-10-16T09:32:15;21.40;72.90
38592;DHT22;24356;48.460;11.450;2022-10-16T09:34:47;21.50;73.40
38592;DHT22;24356;48.460;11.450;2022-10-16T09:37:17;21.60;72.70
38592;DHT22;24356;48.460;11.450;2022-10-16T09:39:54;21.70;72.20
38592;DHT22;24356;48.460;11.450;2022-10-16T09:44:49;21.80;73.10
38592;DHT22;24356;48.460;11.450;2022-10-16T09:47:30;21.80;72.40
38592;DHT22;24356;48.460;11.450;2022-10-16T09:50:01;21.90;72.50
38592;DHT22;24356;48.460;11.450;2022-10-16T09:52:30;22.00;72.30
38592;DHT22;24356;48.460;11.450;2022-10-16T09:55:09;22.10;71.80
38592;DHT22;24356;48.460;11.450;2022-10-16T09:57:48;22.10;72.00
38592;DHT22;24356;48.460;11.450;2022-10-16T10:00:16;22.20;71.60
38592;DHT22;24356;48.460;11.450;2022-10-16T10:02:43;22.20;71.60
38592;DHT22;24356;48.460;11.450;2022-10-16T10:05:21;22.20;71.80
38592;DHT22;24356;48.460;11.450;2022-10-16T10:07:58;22.30;71.30
38592;DHT22;24356;48.460;11.450;2022-10-16T10:10:33;22.30;71.10
38592;DHT22;24356;48.460;11.450;2022-10-16T10:12:59;22.30;71.30
38592;DHT22;24356;48.460;11.450;2022-10-16T10:15:27;22.30;70.90
38592;DHT22;24356;48.460;11.450;2022-10-16T10:17:56;22.40;70.90
38592;DHT22;24356;48.460;11.450;2022-10-16T10:23:22;22.40;70.80
38592;DHT22;24356;48.460;11.450;2022-10-16T10:25:56;22.50;70.60
38592;DHT22;24356;48.460;11.450;2022-10-16T10:31:13;22.80;71.00
38592;DHT22;24356;48.460;11.450;2022-10-16T10:34:23;22.90;71.10
38592;DHT22;24356;48.460;11.450;2022-10-16T10:37:09;22.90;70.20
38592;DHT22;24356;48.460;11.450;2022-10-16T10:39:58;22.90;71.00
38592;DHT22;24356;48.460;11.450;2022-10-16T10:43:12;22.80;71.20
38592;DHT22;24356;48.460;11.450;2022-10-16T10:45:46;22.70;71.00
38592;DHT22;24356;48.460;11.450;2022-10-16T10:51:08;22.60;71.50
38592;DHT22;24356;48.460;11.450;2022-10-16T10:56:56;22.60;71.40
38592;DHT22;24356;48.460;11.450;2022-10-16T11:02:41;22.80;71.20
38592;DHT22;24356;48.460;11.450;2022-10-16T11:08:02;22.90;70.90
38592;DHT22;24356;48.460;11.450;2022-10-16T11:13:31;23.00;70.70
38592;DHT22;24356;48.460;11.450;2022-10-16T11:16:02;23.00;70.40
38592;DHT22;24356;48.460;11.450;2022-10-16T11:21:29;23.00;70.50
38592;DHT22;24356;48.460;11.450;2022-10-16T11:24:16;23.00;70.30
38592;DHT22;24356;48.460;11.450;2022-10-16T11:26:46;23.00;70.50
38592;DHT22;24356;48.460;11.450;2022-10-16T11:29:27;22.90;70.20
38592;DHT22;24356;48.460;11.450;2022-10-16T11:31:59;22.90;70.10
38592;DHT22;24356;48.460;11.450;2022-10-16T11:34:32;22.90;70.30
38592;DHT22;24356;48.460;11.450;2022-10-16T11:37:11;22.90;70.20
38592;DHT22;24356;48.460;11.450;2022-10-16T11:39:38;22.80;70.10
38592;DHT22;24356;48.460;11.450;2022-10-16T11:42:31;22.80;70.60
38592;DHT22;24356;48.460;11.450;2022-10-16T11:45:04;22.80;70.80
38592;DHT22;24356;48.460;11.450;2022-10-16T11:47:37;22.80;70.70
38592;DHT22;24356;48.460;11.450;2022-10-16T11:50:46;22.70;70.90
38592;DHT22;24356;48.460;11.450;2022-10-16T11:55:49;22.90;71.00
38592;DHT22;24356;48.460;11.450;2022-10-16T12:00:55;23.00;70.90
38592;DHT22;24356;48.460;11.450;2022-10-16T12:11:49;23.10;70.70
38592;DHT22;24356;48.460;11.450;2022-10-16T12:16:58;23.10;71.00
38592;DHT22;24356;48.460;11.450;2022-10-16T12:19:29;23.00;70.80
38592;DHT22;24356;48.460;11.450;2022-10-16T12:21:57;22.90;71.00
38592;DHT22;24356;48.460;11.450;2022-10-16T12:26:52;22.80;71.50
38592;DHT22;24356;48.460;11.450;2022-10-16T12:29:40;22.80;71.40
38592;DHT22;24356;48.460;11.450;2022-10-16T12:32:32;22.70;71.00
38592;DHT22;24356;48.460;11.450;2022-10-16T12:35:02;22.70;70.90
38592;DHT22;24356;48.460;11.450;2022-10-16T12:37:34;22.60;70.90
38592;DHT22;24356;48.460;11.450;2022-10-16T12:40:25;22.60;71.20
38592;DHT22;24356;48.460;11.450;2022-10-16T12:42:51;22.50;71.40
38592;DHT22;24356;48.460;11.450;2022-10-16T12:45:30;22.60;71.70
38592;DHT22;24356;48.460;11.450;2022-10-16T12:47:59;22.60;71.80
38592;DHT22;24356;48.460;11.450;2022-10-16T12:50:32;22.60;71.80
38592;DHT22;24356;48.460;11.450;2022-10-16T12:53:00;22.60;71.80
38592;DHT22;24356;48.460;11.450;2022-10-16T12:55:27;22.60;71.80
38592;DHT22;24356;48.460;11.450;2022-10-16T13:17:49;22.80;71.90
38592;DHT22;24356;48.460;11.450;2022-10-16T13:20:51;22.90;71.70
38592;DHT22;24356;48.460;11.450;2022-10-16T13:23:29;22.90;71.40
38592;DHT22;24356;48.460;11.450;2022-10-16T13:26:35;23.00;71.30
38592;DHT22;24356;48.460;11.450;2022-10-16T13:29:03;23.00;71.10
38592;DHT22;24356;48.460;11.450;2022-10-16T13:31:30;23.10;71.00
38592;DHT22;24356;48.460;11.450;2022-10-16T13:34:00;23.10;70.90
38592;DHT22;24356;48.460;11.450;2022-10-16T13:36:27;23.20;70.90
38592;DHT22;24356;48.460;11.450;2022-10-16T13:39:14;23.20;70.70
38592;DHT22;24356;48.460;11.450;2022-10-16T13:41:40;23.30;70.70
38592;DHT22;24356;48.460;11.450;2022-10-16T13:44:19;23.30;70.70
38592;DHT22;24356;48.460;11.450;2022-10-16T13:46:45;23.40;70.70
38592;DHT22;24356;48.460;11.450;2022-10-16T13:49:14;23.40;70.30
38592;DHT22;24356;48.460;11.450;2022-10-16T13:51:40;23.30;70.40
38592;DHT22;24356;48.460;11.450;2022-10-16T13:54:09;23.30;70.30
38592;DHT22;24356;48.460;11.450;2022-10-16T13:56:38;23.30;70.30
38592;DHT22;24356;48.460;11.450;2022-10-16T13:59:20;23.40;70.50
38592;DHT22;24356;48.460;11.450;2022-10-16T14:01:47;23.40;70.30
38592;DHT22;24356;48.460;11.450;2022-10-16T14:04:14;23.40;70.40
38592;DHT22;24356;48.460;11.450;2022-10-16T14:06:42;23.40;70.40
38592;DHT22;24356;48.460;11.450;2022-10-16T14:12:00;23.40;70.20
38592;DHT22;24356;48.460;11.450;2022-10-16T14:14:35;23.30;70.20
38592;DHT22;24356;48.460;11.450;2022-10-16T14:17:05;23.30;70.40
38592;DHT22;24356;48.460;11.450;2022-10-16T14:19:31;23.30;70.40
38592;DHT22;24356;48.460;11.450;2022-10-16T14:21:58;23.30;70.40
38592;DHT22;24356;48.460;11.450;2022-10-16T14:24:33;23.30;70.40
38592;DHT22;24356;48.460;11.450;2022-10-16T14:27:00;23.30;70.40
38592;DHT22;24356;48.460;11.450;2022-10-16T14:29:28;23.30;70.40
38592;DHT22;24356;48.460;11.450;2022-10-16T14:32:21;23.30;70.30
38592;DHT22;24356;48.460;11.450;2022-10-16T14:34:53;23.20;71.40
38592;DHT22;24356;48.460;11.450;2022-10-16T14:37:27;22.90;71.80
38592;DHT22;24356;48.460;11.450;2022-10-16T14:39:54;22.90;72.20
38592;DHT22;24356;48.460;11.450;2022-10-16T14:42:23;22.80;72.20
38592;DHT22;24356;48.460;11.450;2022-10-16T14:44:53;22.70;72.40
38592;DHT22;24356;48.460;11.450;2022-10-16T14:47:22;22.50;73.00
38592;DHT22;24356;48.460;11.450;2022-10-16T14:49:53;22.30;73.60
38592;DHT22;24356;48.460;11.450;2022-10-16T14:52:24;22.20;74.00
38592;DHT22;24356;48.460;11.450;2022-10-16T14:54:50;22.10;74.70
38592;DHT22;24356;48.460;11.450;2022-10-16T14:57:18;22.00;75.30
38592;DHT22;24356;48.460;11.450;2022-10-16T14:59:47;21.80;76.10
38592;DHT22;24356;48.460;11.450;2022-10-16T15:02:25;21.70;76.70
38592;DHT22;24356;48.460;11.450;2022-10-16T15:04:51;21.60;77.20
38592;DHT22;24356;48.460;11.450;2022-10-16T15:07:17;21.40;77.50
38592;DHT22;24356;48.460;11.450;2022-10-16T15:09:44;21.30;77.70
38592;DHT22;24356;48.460;11.450;2022-10-16T15:12:09;21.20;78.30
38592;DHT22;24356;48.460;11.450;2022-10-16T15:14:35;21.10;78.70
38592;DHT22;24356;48.460;11.450;2022-10-16T15:17:01;21.00;78.90
38592;DHT22;24356;48.460;11.450;2022-10-16T15:19:26;20.90;79.20
38592;DHT22;24356;48.460;11.450;2022-10-16T15:21:54;20.80;79.40
38592;DHT22;24356;48.460;11.450;2022-10-16T15:24:19;20.80;79.60
38592;DHT22;24356;48.460;11.450;2022-10-16T15:26:45;20.70;79.60
38592;DHT22;24356;48.460;11.450;2022-10-16T15:29:14;20.70;79.60
38592;DHT22;24356;48.460;11.450;2022-10-16T15:31:40;20.60;79.20
38592;DHT22;24356;48.460;11.450;2022-10-16T15:34:09;20.60;79.00
38592;DHT22;24356;48.460;11.450;2022-10-16T15:36:36;20.60;78.80
38592;DHT22;24356;48.460;11.450;2022-10-16T15:39:22;20.50;78.40
38592;DHT22;24356;48.460;11.450;2022-10-16T15:41:48;20.50;78.30
38592;DHT22;24356;48.460;11.450;2022-10-16T15:44:19;20.40;78.20
38592;DHT22;24356;48.460;11.450;2022-10-16T15:46:46;20.20;78.70
38592;DHT22;24356;48.460;11.450;2022-10-16T15:49:11;20.10;79.20
38592;DHT22;24356;48.460;11.450;2022-10-16T15:51:38;19.90;79.40
38592;DHT22;24356;48.460;11.450;2022-10-16T15:54:04;19.80;79.70
38592;DHT22;24356;48.460;11.450;2022-10-16T15:56:31;19.70;80.20
38592;DHT22;24356;48.460;11.450;2022-10-16T15:58:59;19.60;79.90
38592;DHT22;24356;48.460;11.450;2022-10-16T16:01:25;19.60;80.20
38592;DHT22;24356;48.460;11.450;2022-10-16T16:03:55;19.70;79.30
38592;DHT22;24356;48.460;11.450;2022-10-16T16:06:21;19.80;78.80
38592;DHT22;24356;48.460;11.450;2022-10-16T16:08:49;19.80;78.60
38592;DHT22;24356;48.460;11.450;2022-10-16T16:11:16;19.70;78.60
38592;DHT22;24356;48.460;11.450;2022-10-16T16:13:42;19.50;78.50
38592;DHT22;24356;48.460;11.450;2022-10-16T16:16:13;19.40;78.40
38592;DHT22;24356;48.460;11.450;2022-10-16T16:18:41;19.30;78.40
38592;DHT22;24356;48.460;11.450;2022-10-16T16:21:10;19.20;78.40
38592;DHT22;24356;48.460;11.450;2022-10-16T16:23:36;19.10;78.70
38592;DHT22;24356;48.460;11.450;2022-10-16T16:28:28;18.90;79.00
38592;DHT22;24356;48.460;11.450;2022-10-16T16:30:55;18.80;79.10
38592;DHT22;24356;48.460;11.450;2022-10-16T16:33:20;18.70;79.40
38592;DHT22;24356;48.460;11.450;2022-10-16T16:35:46;18.60;79.70
38592;DHT22;24356;48.460;11.450;2022-10-16T16:38:11;18.50;79.60
38592;DHT22;24356;48.460;11.450;2022-10-16T16:40:37;18.40;79.70
38592;DHT22;24356;48.460;11.450;2022-10-16T16:43:03;18.30;80.00
38592;DHT22;24356;48.460;11.450;2022-10-16T16:45:30;18.20;80.60
38592;DHT22;24356;48.460;11.450;2022-10-16T16:47:56;18.10;80.80
38592;DHT22;24356;48.460;11.450;2022-10-16T16:50:21;18.00;81.20
38592;DHT22;24356;48.460;11.450;2022-10-16T16:52:47;17.90;81.60
38592;DHT22;24356;48.460;11.450;2022-10-16T16:55:12;17.80;81.80
38592;DHT22;24356;48.460;11.450;2022-10-16T16:57:38;17.70;82.50
38592;DHT22;24356;48.460;11.450;2022-10-16T17:00:04;17.70;82.00
38592;DHT22;24356;48.460;11.450;2022-10-16T17:02:30;17.60;82.40
38592;DHT22;24356;48.460;11.450;2022-10-16T17:04:56;17.50;82.80
38592;DHT22;24356;48.460;11.450;2022-10-16T17:07:22;17.40;82.90